sensor_id;sensor_type;location;lat;lon;timestamp;pressure;altitude;pressure_sealevel;temperature;humidity
75549;BME280;64133;56.002;37.208;2023-11-19T00:00:21;99942.36;;;-7.72;68.25
75549;BME280;64133;56.002;37.208;2023-11-19T00:05:26;99939.81;;;-7.17;68.31
75549;BME280;64133;56.002;37.208;2023-11-19T00:10:31;99935.12;;;-7.24;68.16
75549;BME280;64133;56.002;37.208;2023-11-19T00:15:36;99938.09;;;-7.15;67.94
75549;BME280;64133;56.002;37.208;2023-11-19T00:20:41;99938.96;;;-7.21;68.00
75549;BME280;64133;56.002;37.208;2023-11-19T00:25:46;99944.91;;;-7.03;67.44
75549;BME280;64133;56.002;37.208;2023-11-19T00:30:51;99942.73;;;-6.78;67.72
75549;BME280;64133;56.002;37.208;2023-11-19T00:35:56;99937.20;;;-6.87;68.03
75549;BME280;64133;56.002;37.208;2023-11-19T00:41:00;99929.43;;;-6.53;67.98
75549;BME280;64133;56.002;37.208;2023-11-19T00:46:08;99926.00;;;-6.52;67.75
75549;BME280;64133;56.002;37.208;2023-11-19T00:51:13;99928.59;;;-6.63;68.01
75549;BME280;64133;56.002;37.208;2023-11-19T00:56:18;99907.96;;;-6.32;67.98
75549;BME280;64133;56.002;37.208;2023-11-19T01:01:23;99898.45;;;-6.09;67.39
75549;BME280;64133;56.002;37.208;2023-11-19T01:06:29;99895.92;;;-6.16;68.47
75549;BME280;64133;56.002;37.208;2023-11-19T01:11:34;99891.17;;;-6.04;68.29
75549;BME280;64133;56.002;37.208;2023-11-19T01:16:38;99889.05;;;-6.11;69.37
75549;BME280;64133;56.002;37.208;2023-11-19T01:21:43;99877.98;;;-6.19;69.19
75549;BME280;64133;56.002;37.208;2023-11-19T01:26:48;99877.37;;;-5.91;69.05
75549;BME280;64133;56.002;37.208;2023-11-19T01:31:53;99869.63;;;-5.88;69.15
75549;BME280;64133;56.002;37.208;2023-11-19T01:36:58;99872.00;;;-6.14;68.85
75549;BME280;64133;56.002;37.208;2023-11-19T01:42:03;99867.89;;;-5.82;69.73
75549;BME280;64133;56.002;37.208;2023-11-19T01:47:08;99860.59;;;-5.77;69.21
75549;BME280;64133;56.002;37.208;2023-11-19T01:52:13;99861.55;;;-5.91;68.78
75549;BME280;64133;56.002;37.208;2023-11-19T01:57:18;99857.96;;;-5.71;69.14
75549;BME280;64133;56.002;37.208;2023-11-19T02:02:23;99853.84;;;-5.88;68.62
75549;BME280;64133;56.002;37.208;2023-11-19T02:07:27;99849.34;;;-5.61;69.12
75549;BME280;64133;56.002;37.208;2023-11-19T02:12:32;99851.59;;;-5.74;68.83
75549;BME280;64133;56.002;37.208;2023-11-19T02:17:38;99845.34;;;-5.46;68.48
75549;BME280;64133;56.002;37.208;2023-11-19T02:22:43;99848.37;;;-5.48;68.27
75549;BME280;64133;56.002;37.208;2023-11-19T02:27:53;99848.39;;;-5.51;68.05
75549;BME280;64133;56.002;37.208;2023-11-19T02:32:57;99838.29;;;-5.69;68.25
75549;BME280;64133;56.002;37.208;2023-11-19T02:38:02;99846.30;;;-5.56;69.11
75549;BME280;64133;56.002;37.208;2023-11-19T02:43:07;99849.61;;;-5.93;68.02
75549;BME280;64133;56.002;37.208;2023-11-19T02:48:12;99845.69;;;-5.86;68.32
75549;BME280;64133;56.002;37.208;2023-11-19T02:53:17;99837.91;;;-5.76;69.67
75549;BME280;64133;56.002;37.208;2023-11-19T02:58:22;99838.08;;;-5.92;68.86
75549;BME280;64133;56.002;37.208;2023-11-19T03:03:27;99837.55;;;-5.37;68.83
75549;BME280;64133;56.002;37.208;2023-11-19T03:08:34;99831.03;;;-5.70;68.87
75549;BME280;64133;56.002;37.208;2023-11-19T03:13:38;99824.52;;;-5.62;69.12
75549;BME280;64133;56.002;37.208;2023-11-19T03:18:43;99812.22;;;-5.72;68.92
75549;BME280;64133;56.002;37.208;2023-11-19T03:23:48;99807.75;;;-5.53;68.75
75549;BME280;64133;56.002;37.208;2023-11-19T03:28:52;99803.50;;;-5.54;69.21
75549;BME280;64133;56.002;37.208;2023-11-19T03:33:58;99812.22;;;-5.26;68.72
75549;BME280;64133;56.002;37.208;2023-11-19T03:39:03;99811.84;;;-5.31;68.53
75549;BME280;64133;56.002;37.208;2023-11-19T03:44:08;99820.19;;;-5.52;68.91
75549;BME280;64133;56.002;37.208;2023-11-19T03:49:12;99810.42;;;-5.20;67.63
75549;BME280;64133;56.002;37.208;2023-11-19T03:54:17;99809.03;;;-5.09;68.89
75549;BME280;64133;56.002;37.208;2023-11-19T03:59:22;99799.28;;;-5.17;68.23
75549;BME280;64133;56.002;37.208;2023-11-19T04:04:27;99808.44;;;-4.95;68.87
75549;BME280;64133;56.002;37.208;2023-11-19T04:09:32;99801.60;;;-4.97;68.05
75549;BME280;64133;56.002;37.208;2023-11-19T04:14:38;99790.89;;;-4.97;68.06
75549;BME280;64133;56.002;37.208;2023-11-19T04:19:43;99783.88;;;-4.84;68.55
75549;BME280;64133;56.002;37.208;2023-11-19T04:24:48;99780.02;;;-4.51;68.47
75549;BME280;64133;56.002;37.208;2023-11-19T04:29:53;99769.53;;;-4.67;67.59
75549;BME280;64133;56.002;37.208;2023-11-19T04:34:58;99768.21;;;-4.96;68.29
75549;BME280;64133;56.002;37.208;2023-11-19T04:40:03;99771.63;;;-4.95;68.15
75549;BME280;64133;56.002;37.208;2023-11-19T04:45:09;99771.56;;;-4.59;68.30
75549;BME280;64133;56.002;37.208;2023-11-19T04:50:14;99777.92;;;-4.88;67.98
75549;BME280;64133;56.002;37.208;2023-11-19T04:55:19;99778.24;;;-4.79;68.27
75549;BME280;64133;56.002;37.208;2023-11-19T05:00:22;99776.54;;;-4.48;68.47
75549;BME280;64133;56.002;37.208;2023-11-19T05:05:27;99782.78;;;-4.65;67.85
75549;BME280;64133;56.002;37.208;2023-11-19T05:10:32;99781.44;;;-4.32;68.17
75549;BME280;64133;56.002;37.208;2023-11-19T05:15:35;99780.34;;;-4.74;67.59
75549;BME280;64133;56.002;37.208;2023-11-19T05:20:40;99787.83;;;-4.57;67.67
75549;BME280;64133;56.002;37.208;2023-11-19T05:25:44;99792.03;;;-4.23;68.28
75549;BME280;64133;56.002;37.208;2023-11-19T05:30:48;99789.22;;;-4.35;67.68
75549;BME280;64133;56.002;37.208;2023-11-19T05:35:52;99797.24;;;-3.99;68.01
75549;BME280;64133;56.002;37.208;2023-11-19T05:40:57;99788.08;;;-4.44;66.23
75549;BME280;64133;56.002;37.208;2023-11-19T05:46:02;99789.02;;;-3.94;67.13
75549;BME280;64133;56.002;37.208;2023-11-19T05:51:09;99794.48;;;-3.87;65.96
75549;BME280;64133;56.002;37.208;2023-11-19T05:56:14;99796.84;;;-4.00;65.67
75549;BME280;64133;56.002;37.208;2023-11-19T06:01:20;99794.67;;;-3.99;65.65
75549;BME280;64133;56.002;37.208;2023-11-19T06:06:25;99784.83;;;-4.01;65.45
75549;BME280;64133;56.002;37.208;2023-11-19T06:11:30;99780.73;;;-3.62;65.55
75549;BME280;64133;56.002;37.208;2023-11-19T06:16:35;99786.03;;;-3.95;65.48
75549;BME280;64133;56.002;37.208;2023-11-19T06:21:41;99780.48;;;-3.96;64.96
75549;BME280;64133;56.002;37.208;2023-11-19T06:26:45;99775.78;;;-3.98;64.73
75549;BME280;64133;56.002;37.208;2023-11-19T06:31:50;99770.53;;;-4.17;65.09
75549;BME280;64133;56.002;37.208;2023-11-19T06:36:55;99773.66;;;-3.73;64.75
75549;BME280;64133;56.002;37.208;2023-11-19T06:42:00;99764.06;;;-4.16;64.38
75549;BME280;64133;56.002;37.208;2023-11-19T06:47:06;99768.95;;;-3.99;64.16
75549;BME280;64133;56.002;37.208;2023-11-19T06:52:11;99767.83;;;-3.84;63.97
75549;BME280;64133;56.002;37.208;2023-11-19T06:57:16;99770.20;;;-3.97;64.12
75549;BME280;64133;56.002;37.208;2023-11-19T07:02:21;99768.87;;;-3.94;64.61
75549;BME280;64133;56.002;37.208;2023-11-19T07:07:26;99767.33;;;-4.33;63.42
75549;BME280;64133;56.002;37.208;2023-11-19T07:12:31;99760.75;;;-3.97;63.73
75549;BME280;64133;56.002;37.208;2023-11-19T07:17:36;99760.02;;;-4.03;63.05
75549;BME280;64133;56.002;37.208;2023-11-19T07:22:41;99759.22;;;-3.83;64.14
75549;BME280;64133;56.002;37.208;2023-11-19T07:27:46;99762.52;;;-4.27;63.53
75549;BME280;64133;56.002;37.208;2023-11-19T07:32:51;99765.81;;;-4.46;64.03
75549;BME280;64133;56.002;37.208;2023-11-19T07:38:28;99760.98;;;-4.09;64.01
75549;BME280;64133;56.002;37.208;2023-11-19T07:44:08;99768.11;;;-3.74;64.58
75549;BME280;64133;56.002;37.208;2023-11-19T07:49:13;99770.03;;;-3.87;63.91
75549;BME280;64133;56.002;37.208;2023-11-19T07:54:19;99762.66;;;-3.59;63.62
75549;BME280;64133;56.002;37.208;2023-11-19T07:59:24;99766.60;;;-4.14;63.86
75549;BME280;64133;56.002;37.208;2023-11-19T08:04:29;99757.88;;;-4.04;63.57
75549;BME280;64133;56.002;37.208;2023-11-19T08:09:34;99738.83;;;-3.46;62.30
75549;BME280;64133;56.002;37.208;2023-11-19T08:14:39;99739.63;;;-3.65;61.42
75549;BME280;64133;56.002;37.208;2023-11-19T08:19:44;99749.70;;;-3.32;61.92
75549;BME280;64133;56.002;37.208;2023-11-19T08:24:49;99740.34;;;-3.36;62.10
75549;BME280;64133;56.002;37.208;2023-11-19T08:29:54;99743.26;;;-4.02;61.82
75549;BME280;64133;56.002;37.208;2023-11-19T08:35:00;99739.79;;;-3.74;62.40
75549;BME280;64133;56.002;37.208;2023-11-19T08:40:08;99752.37;;;-3.59;62.15
75549;BME280;64133;56.002;37.208;2023-11-19T08:45:13;99745.63;;;-3.90;61.76
75549;BME280;64133;56.002;37.208;2023-11-19T08:50:19;99740.26;;;-3.09;62.03
75549;BME280;64133;56.002;37.208;2023-11-19T08:55:24;99730.94;;;-2.74;60.87
75549;BME280;64133;56.002;37.208;2023-11-19T09:00:31;99734.13;;;-3.03;61.29
75549;BME280;64133;56.002;37.208;2023-11-19T09:05:39;99730.59;;;-3.89;59.92
75549;BME280;64133;56.002;37.208;2023-11-19T09:10:44;99731.95;;;-4.17;59.55
75549;BME280;64133;56.002;37.208;2023-11-19T09:15:49;99723.70;;;-3.63;59.37
75549;BME280;64133;56.002;37.208;2023-11-19T09:20:54;99728.75;;;-3.57;59.27
75549;BME280;64133;56.002;37.208;2023-11-19T09:26:00;99715.35;;;-4.25;59.16
75549;BME280;64133;56.002;37.208;2023-11-19T09:31:13;99714.35;;;-4.16;58.83
75549;BME280;64133;56.002;37.208;2023-11-19T09:36:23;99717.19;;;-4.62;59.90
75549;BME280;64133;56.002;37.208;2023-11-19T09:41:25;99708.47;;;-4.78;59.35
75549;BME280;64133;56.002;37.208;2023-11-19T09:46:33;99702.02;;;-4.21;60.69
75549;BME280;64133;56.002;37.208;2023-11-19T09:51:38;99690.97;;;-4.55;58.93
75549;BME280;64133;56.002;37.208;2023-11-19T09:56:43;99667.66;;;-4.70;59.65
75549;BME280;64133;56.002;37.208;2023-11-19T10:01:48;99666.15;;;-4.58;60.44
75549;BME280;64133;56.002;37.208;2023-11-19T10:06:53;99666.08;;;-4.00;61.28
75549;BME280;64133;56.002;37.208;2023-11-19T10:11:58;99654.58;;;-3.60;60.43
75549;BME280;64133;56.002;37.208;2023-11-19T10:17:04;99647.84;;;-3.67;58.27
75549;BME280;64133;56.002;37.208;2023-11-19T10:22:09;99637.21;;;-3.10;58.38
75549;BME280;64133;56.002;37.208;2023-11-19T10:27:14;99627.90;;;-3.56;57.53
75549;BME280;64133;56.002;37.208;2023-11-19T10:32:18;99634.44;;;-3.62;59.59
75549;BME280;64133;56.002;37.208;2023-11-19T10:37:30;99638.71;;;-3.82;58.15
75549;BME280;64133;56.002;37.208;2023-11-19T10:42:36;99637.61;;;-3.93;57.98
75549;BME280;64133;56.002;37.208;2023-11-19T10:47:41;99625.23;;;-3.32;57.69
75549;BME280;64133;56.002;37.208;2023-11-19T10:52:46;99622.20;;;-2.91;58.27
75549;BME280;64133;56.002;37.208;2023-11-19T10:57:51;99621.47;;;-3.37;57.63
75549;BME280;64133;56.002;37.208;2023-11-19T11:02:59;99623.20;;;-3.57;57.44
75549;BME280;64133;56.002;37.208;2023-11-19T11:08:01;99626.47;;;-3.71;58.12
75549;BME280;64133;56.002;37.208;2023-11-19T11:13:07;99597.16;;;-3.64;58.09
75549;BME280;64133;56.002;37.208;2023-11-19T11:18:12;99637.95;;;-3.66;59.14
75549;BME280;64133;56.002;37.208;2023-11-19T11:23:32;99641.02;;;-4.15;58.04
75549;BME280;64133;56.002;37.208;2023-11-19T11:28:37;99631.85;;;-4.55;58.88
75549;BME280;64133;56.002;37.208;2023-11-19T11:33:58;99632.91;;;-4.41;59.76
75549;BME280;64133;56.002;37.208;2023-11-19T11:38:54;99626.11;;;-3.96;59.71
75549;BME280;64133;56.002;37.208;2023-11-19T11:44:01;99627.87;;;-4.23;59.57
75549;BME280;64133;56.002;37.208;2023-11-19T11:49:06;99616.75;;;-4.24;59.26
75549;BME280;64133;56.002;37.208;2023-11-19T11:54:14;99614.66;;;-4.27;60.39
75549;BME280;64133;56.002;37.208;2023-11-19T11:59:20;99611.61;;;-4.01;60.00
75549;BME280;64133;56.002;37.208;2023-11-19T12:04:28;99606.77;;;-4.17;60.15
75549;BME280;64133;56.002;37.208;2023-11-19T12:09:33;99608.45;;;-3.92;59.09
75549;BME280;64133;56.002;37.208;2023-11-19T12:15:06;99606.75;;;-4.66;60.13
75549;BME280;64133;56.002;37.208;2023-11-19T12:20:11;99612.41;;;-4.71;60.58
75549;BME280;64133;56.002;37.208;2023-11-19T12:25:16;99601.97;;;-4.61;60.49
75549;BME280;64133;56.002;37.208;2023-11-19T12:30:25;99604.42;;;-4.55;60.66
75549;BME280;64133;56.002;37.208;2023-11-19T12:35:29;99601.69;;;-4.69;60.68
75549;BME280;64133;56.002;37.208;2023-11-19T12:40:33;99600.97;;;-4.52;61.34
75549;BME280;64133;56.002;37.208;2023-11-19T12:45:38;99595.02;;;-4.32;61.36
75549;BME280;64133;56.002;37.208;2023-11-19T12:50:54;99583.93;;;-4.34;61.50
75549;BME280;64133;56.002;37.208;2023-11-19T12:55:59;99591.84;;;-4.71;61.25
75549;BME280;64133;56.002;37.208;2023-11-19T13:01:05;99582.81;;;-4.44;62.37
75549;BME280;64133;56.002;37.208;2023-11-19T13:06:10;99586.91;;;-4.82;62.61
75549;BME280;64133;56.002;37.208;2023-11-19T13:11:19;99580.28;;;-4.46;62.70
75549;BME280;64133;56.002;37.208;2023-11-19T13:16:19;99573.06;;;-4.49;62.99
75549;BME280;64133;56.002;37.208;2023-11-19T13:21:24;99581.77;;;-4.82;62.69
75549;BME280;64133;56.002;37.208;2023-11-19T13:26:27;99572.25;;;-4.77;63.92
75549;BME280;64133;56.002;37.208;2023-11-19T13:31:32;99566.70;;;-4.52;64.39
75549;BME280;64133;56.002;37.208;2023-11-19T13:36:38;99553.81;;;-4.51;63.98
75549;BME280;64133;56.002;37.208;2023-11-19T13:41:43;99551.58;;;-4.69;63.84
75549;BME280;64133;56.002;37.208;2023-11-19T13:46:48;99541.73;;;-4.97;63.05
75549;BME280;64133;56.002;37.208;2023-11-19T13:51:53;99548.44;;;-4.61;64.25
75549;BME280;64133;56.002;37.208;2023-11-19T13:56:57;99542.48;;;-4.18;63.51
75549;BME280;64133;56.002;37.208;2023-11-19T14:02:02;99546.47;;;-4.24;62.92
75549;BME280;64133;56.002;37.208;2023-11-19T14:07:07;99543.66;;;-4.57;63.08
75549;BME280;64133;56.002;37.208;2023-11-19T14:12:11;99546.59;;;-4.78;63.47
75549;BME280;64133;56.002;37.208;2023-11-19T14:17:16;99547.39;;;-4.51;63.75
75549;BME280;64133;56.002;37.208;2023-11-19T14:22:19;99551.70;;;-4.77;63.52
75549;BME280;64133;56.002;37.208;2023-11-19T14:27:24;99557.58;;;-4.96;63.35
75549;BME280;64133;56.002;37.208;2023-11-19T14:32:28;99550.61;;;-4.89;63.39
75549;BME280;64133;56.002;37.208;2023-11-19T14:37:33;99549.29;;;-4.88;63.31
75549;BME280;64133;56.002;37.208;2023-11-19T14:42:37;99544.37;;;-5.28;63.66
75549;BME280;64133;56.002;37.208;2023-11-19T14:47:43;99548.78;;;-5.08;63.48
75549;BME280;64133;56.002;37.208;2023-11-19T14:52:50;99542.14;;;-5.23;64.17
75549;BME280;64133;56.002;37.208;2023-11-19T14:57:55;99547.97;;;-4.85;64.90
75549;BME280;64133;56.002;37.208;2023-11-19T15:03:01;99536.04;;;-4.63;63.54
75549;BME280;64133;56.002;37.208;2023-11-19T15:08:07;99538.61;;;-4.87;64.29
75549;BME280;64133;56.002;37.208;2023-11-19T15:13:12;99538.20;;;-4.90;63.98
75549;BME280;64133;56.002;37.208;2023-11-19T15:18:15;99469.53;;;-5.29;63.81
75549;BME280;64133;56.002;37.208;2023-11-19T15:23:21;99531.72;;;-5.41;64.74
75549;BME280;64133;56.002;37.208;2023-11-19T15:28:24;99526.52;;;-5.35;65.01
75549;BME280;64133;56.002;37.208;2023-11-19T15:33:29;99512.84;;;-5.37;64.65
75549;BME280;64133;56.002;37.208;2023-11-19T15:38:34;99524.61;;;-5.23;64.43
75549;BME280;64133;56.002;37.208;2023-11-19T15:43:38;99521.97;;;-5.17;64.83
75549;BME280;64133;56.002;37.208;2023-11-19T15:48:43;99521.70;;;-5.02;65.11
75549;BME280;64133;56.002;37.208;2023-11-19T15:53:47;99506.81;;;-4.82;65.14
75549;BME280;64133;56.002;37.208;2023-11-19T15:58:51;99511.88;;;-5.02;64.66
75549;BME280;64133;56.002;37.208;2023-11-19T16:03:55;99513.27;;;-5.10;65.59
75549;BME280;64133;56.002;37.208;2023-11-19T16:09:00;99502.97;;;-4.82;64.82
75549;BME280;64133;56.002;37.208;2023-11-19T16:14:04;99499.16;;;-4.85;64.90
75549;BME280;64133;56.002;37.208;2023-11-19T16:19:08;99505.55;;;-4.59;65.29
75549;BME280;64133;56.002;37.208;2023-11-19T16:24:12;99503.98;;;-4.21;66.01
75549;BME280;64133;56.002;37.208;2023-11-19T16:29:17;99503.07;;;-4.64;64.25
75549;BME280;64133;56.002;37.208;2023-11-19T16:34:22;99505.48;;;-4.78;64.07
75549;BME280;64133;56.002;37.208;2023-11-19T16:39:26;99505.48;;;-4.78;65.28
75549;BME280;64133;56.002;37.208;2023-11-19T16:44:30;99512.31;;;-5.03;64.64
75549;BME280;64133;56.002;37.208;2023-11-19T16:49:35;99510.97;;;-5.25;64.71
75549;BME280;64133;56.002;37.208;2023-11-19T16:54:39;99509.67;;;-5.54;64.57
75549;BME280;64133;56.002;37.208;2023-11-19T16:59:43;99496.23;;;-5.70;65.02
75549;BME280;64133;56.002;37.208;2023-11-19T17:04:48;99487.28;;;-5.43;64.53
75549;BME280;64133;56.002;37.208;2023-11-19T17:09:51;99491.86;;;-5.35;64.63
75549;BME280;64133;56.002;37.208;2023-11-19T17:14:56;99484.67;;;-5.40;65.08
75549;BME280;64133;56.002;37.208;2023-11-19T17:20:00;99480.61;;;-5.00;65.48
75549;BME280;64133;56.002;37.208;2023-11-19T17:25:07;99484.94;;;-4.80;64.31
75549;BME280;64133;56.002;37.208;2023-11-19T17:30:13;99478.81;;;-4.97;63.84
75549;BME280;64133;56.002;37.208;2023-11-19T17:35:18;99478.80;;;-4.95;64.33
75549;BME280;64133;56.002;37.208;2023-11-19T17:40:23;99472.50;;;-4.55;65.30
75549;BME280;64133;56.002;37.208;2023-11-19T17:45:28;99476.39;;;-5.04;64.04
75549;BME280;64133;56.002;37.208;2023-11-19T17:50:35;99468.59;;;-4.74;64.32
75549;BME280;64133;56.002;37.208;2023-11-19T17:55:38;99464.73;;;-4.74;63.91
75549;BME280;64133;56.002;37.208;2023-11-19T18:00:43;99465.94;;;-4.70;63.83
75549;BME280;64133;56.002;37.208;2023-11-19T18:05:48;99458.17;;;-4.91;63.86
75549;BME280;64133;56.002;37.208;2023-11-19T18:10:53;99455.50;;;-5.10;64.26
75549;BME280;64133;56.002;37.208;2023-11-19T18:16:02;99460.91;;;-5.01;64.34
75549;BME280;64133;56.002;37.208;2023-11-19T18:21:13;99454.20;;;-4.61;64.08
75549;BME280;64133;56.002;37.208;2023-11-19T18:26:18;99451.94;;;-4.55;64.92
75549;BME280;64133;56.002;37.208;2023-11-19T18:31:25;99457.20;;;-4.40;64.23
75549;BME280;64133;56.002;37.208;2023-11-19T18:36:35;99460.75;;;-4.68;63.32
75549;BME280;64133;56.002;37.208;2023-11-19T18:41:41;99461.19;;;-5.18;63.69
75549;BME280;64133;56.002;37.208;2023-11-19T18:46:46;99460.98;;;-5.30;63.91
75549;BME280;64133;56.002;37.208;2023-11-19T18:51:49;99453.55;;;-5.47;64.64
75549;BME280;64133;56.002;37.208;2023-11-19T18:56:55;99466.16;;;-5.33;64.07
75549;BME280;64133;56.002;37.208;2023-11-19T19:02:00;99454.92;;;-5.00;63.89
75549;BME280;64133;56.002;37.208;2023-11-19T19:07:08;99453.48;;;-5.17;64.74
75549;BME280;64133;56.002;37.208;2023-11-19T19:12:13;99460.55;;;-5.06;63.87
75549;BME280;64133;56.002;37.208;2023-11-19T19:17:18;99456.53;;;-5.20;64.17
75549;BME280;64133;56.002;37.208;2023-11-19T19:22:22;99452.95;;;-4.88;64.41
75549;BME280;64133;56.002;37.208;2023-11-19T19:27:27;99455.77;;;-5.00;64.33
75549;BME280;64133;56.002;37.208;2023-11-19T19:32:32;99454.00;;;-4.98;64.88
75549;BME280;64133;56.002;37.208;2023-11-19T19:37:37;99453.78;;;-4.41;65.64
75549;BME280;64133;56.002;37.208;2023-11-19T19:42:42;99448.80;;;-4.48;64.97
75549;BME280;64133;56.002;37.208;2023-11-19T19:47:47;99448.55;;;-4.36;64.64
75549;BME280;64133;56.002;37.208;2023-11-19T19:52:51;99449.14;;;-4.65;64.85
75549;BME280;64133;56.002;37.208;2023-11-19T19:57:56;99450.53;;;-4.28;64.42
75549;BME280;64133;56.002;37.208;2023-11-19T20:03:01;99445.67;;;-4.42;65.10
75549;BME280;64133;56.002;37.208;2023-11-19T20:08:07;99447.23;;;-4.14;64.17
75549;BME280;64133;56.002;37.208;2023-11-19T20:13:10;99440.30;;;-4.10;64.16
75549;BME280;64133;56.002;37.208;2023-11-19T20:18:15;99433.62;;;-4.19;63.83
75549;BME280;64133;56.002;37.208;2023-11-19T20:23:20;99442.56;;;-4.37;62.84
75549;BME280;64133;56.002;37.208;2023-11-19T20:28:24;99438.17;;;-4.11;65.04
75549;BME280;64133;56.002;37.208;2023-11-19T20:33:31;99442.81;;;-4.26;63.99
75549;BME280;64133;56.002;37.208;2023-11-19T20:38:36;99450.87;;;-3.84;64.37
75549;BME280;64133;56.002;37.208;2023-11-19T20:43:41;99439.20;;;-4.39;63.84
75549;BME280;64133;56.002;37.208;2023-11-19T20:48:46;99445.30;;;-4.23;64.54
75549;BME280;64133;56.002;37.208;2023-11-19T20:53:51;99449.92;;;-4.39;64.57
75549;BME280;64133;56.002;37.208;2023-11-19T20:58:56;99452.19;;;-4.91;64.79
75549;BME280;64133;56.002;37.208;2023-11-19T21:04:00;99444.78;;;-5.34;66.47
75549;BME280;64133;56.002;37.208;2023-11-19T21:09:05;99442.97;;;-5.03;66.58
75549;BME280;64133;56.002;37.208;2023-11-19T21:14:10;99441.45;;;-5.15;66.22
75549;BME280;64133;56.002;37.208;2023-11-19T21:19:13;99438.88;;;-5.40;66.40
75549;BME280;64133;56.002;37.208;2023-11-19T21:24:18;99432.39;;;-5.10;66.48
75549;BME280;64133;56.002;37.208;2023-11-19T21:29:23;99440.67;;;-5.45;66.46
75549;BME280;64133;56.002;37.208;2023-11-19T21:34:27;99435.72;;;-5.05;66.87
75549;BME280;64133;56.002;37.208;2023-11-19T21:39:32;99426.64;;;-4.76;66.92
75549;BME280;64133;56.002;37.208;2023-11-19T21:44:37;99413.48;;;-5.06;66.90
75549;BME280;64133;56.002;37.208;2023-11-19T21:49:41;99404.02;;;-5.52;67.74
75549;BME280;64133;56.002;37.208;2023-11-19T21:54:45;99405.50;;;-5.13;68.03
75549;BME280;64133;56.002;37.208;2023-11-19T21:59:50;99397.44;;;-5.17;67.76
75549;BME280;64133;56.002;37.208;2023-11-19T22:04:55;99402.86;;;-5.34;67.54
75549;BME280;64133;56.002;37.208;2023-11-19T22:10:00;99399.41;;;-5.86;68.33
75549;BME280;64133;56.002;37.208;2023-11-19T22:15:06;99396.80;;;-5.83;68.87
75549;BME280;64133;56.002;37.208;2023-11-19T22:20:11;99404.87;;;-5.78;68.92
75549;BME280;64133;56.002;37.208;2023-11-19T22:25:15;99407.71;;;-5.95;68.63
75549;BME280;64133;56.002;37.208;2023-11-19T22:30:20;99398.82;;;-5.74;68.77
75549;BME280;64133;56.002;37.208;2023-11-19T22:35:24;99397.14;;;-5.77;68.48
75549;BME280;64133;56.002;37.208;2023-11-19T22:40:29;99403.11;;;-5.76;67.95
75549;BME280;64133;56.002;37.208;2023-11-19T22:45:34;99396.78;;;-6.08;69.13
75549;BME280;64133;56.002;37.208;2023-11-19T22:50:39;99391.78;;;-6.19;68.90
75549;BME280;64133;56.002;37.208;2023-11-19T22:55:44;99382.73;;;-6.43;69.52
75549;BME280;64133;56.002;37.208;2023-11-19T23:00:48;99380.23;;;-6.47;69.48
75549;BME280;64133;56.002;37.208;2023-11-19T23:05:53;99380.23;;;-6.49;69.91
75549;BME280;64133;56.002;37.208;2023-11-19T23:10:57;99380.06;;;-6.68;70.04
75549;BME280;64133;56.002;37.208;2023-11-19T23:16:02;99382.13;;;-6.62;70.22
75549;BME280;64133;56.002;37.208;2023-11-19T23:21:07;99387.66;;;-6.61;70.07
75549;BME280;64133;56.002;37.208;2023-11-19T23:26:12;99375.73;;;-6.99;70.57
75549;BME280;64133;56.002;37.208;2023-11-19T23:31:18;99375.48;;;-7.19;70.57
75549;BME280;64133;56.002;37.208;2023-11-19T23:36:23;99347.59;;;-7.45;70.73
75549;BME280;64133;56.002;37.208;2023-11-19T23:41:28;99372.64;;;-7.32;70.78
75549;BME280;64133;56.002;37.208;2023-11-19T23:46:33;99373.91;;;-7.32;70.92
75549;BME280;64133;56.002;37.208;2023-11-19T23:51:39;99373.92;;;-7.30;70.49
75549;BME280;64133;56.002;37.208;2023-11-19T23:56:43;99369.02;;;-7.55;70.87
